createdAt,value
2019-06-15T00:01:14.508Z,17.91
2019-06-15T00:03:45.442Z,17.90
2019-06-15T00:06:15.841Z,17.89
2019-06-15T00:08:46.581Z,17.89
2019-06-15T00:11:17.082Z,17.91
2019-06-15T00:13:47.720Z,17.93
2019-06-15T00:16:18.090Z,17.94
2019-06-15T00:18:49.794Z,17.96
2019-06-15T00:21:20.111Z,17.97
2019-06-15T00:23:50.794Z,17.98
2019-06-15T00:26:21.365Z,17.97
2019-06-15T00:28:51.950Z,17.98
2019-06-15T00:31:22.434Z,17.99
2019-06-15T00:33:53.387Z,18.02
2019-06-15T00:36:24.047Z,18.02
2019-06-15T00:38:54.647Z,18.05
2019-06-15T00:41:24.931Z,18.03
2019-06-15T00:43:55.569Z,18.02
2019-06-15T00:46:26.831Z,17.99
2019-06-15T00:48:57.534Z,17.86
2019-06-15T00:51:32.815Z,17.86
2019-06-15T00:54:07.993Z,17.75
2019-06-15T00:56:40.818Z,17.59
2019-06-15T00:59:11.155Z,17.42
2019-06-15T01:01:41.438Z,17.35
2019-06-15T01:04:12.021Z,17.30
2019-06-15T01:06:42.688Z,17.24
2019-06-15T01:09:13.014Z,17.25
2019-06-15T01:11:43.631Z,17.25
2019-06-15T01:14:15.673Z,17.26
2019-06-15T01:16:46.328Z,17.24
2019-06-15T01:19:16.899Z,17.23
2019-06-15T01:21:47.802Z,17.24
2019-06-15T01:24:18.361Z,17.30
2019-06-15T01:26:48.886Z,17.30
2019-06-15T01:29:19.694Z,17.33
2019-06-15T01:31:50.299Z,17.35
2019-06-15T01:34:20.854Z,17.34
2019-06-15T01:36:51.401Z,17.34
2019-06-15T01:39:23.172Z,17.37
2019-06-15T01:41:54.022Z,17.37
2019-06-15T01:44:26.942Z,17.36
2019-06-15T01:46:57.596Z,17.39
2019-06-15T01:49:28.123Z,17.40
2019-06-15T01:51:58.710Z,17.43
2019-06-15T01:54:29.302Z,17.45
2019-06-15T01:56:59.898Z,17.47
2019-06-15T01:59:32.081Z,17.48
2019-06-15T02:02:02.695Z,17.49
2019-06-15T02:04:33.338Z,17.48
2019-06-15T02:07:05.680Z,17.47
2019-06-15T02:09:36.300Z,17.47
2019-06-15T02:12:06.812Z,17.48
2019-06-15T02:14:37.455Z,17.47
2019-06-15T02:17:08.128Z,17.47
2019-06-15T02:19:38.726Z,17.45
2019-06-15T02:22:10.096Z,17.41
2019-06-15T02:24:42.196Z,17.40
2019-06-15T02:27:12.833Z,17.39
2019-06-15T02:29:43.472Z,17.40
2019-06-15T02:32:13.803Z,17.39
2019-06-15T02:34:44.683Z,17.41
2019-06-15T02:37:15.226Z,17.39
2019-06-15T02:39:45.710Z,17.39
2019-06-15T02:42:16.086Z,17.41
2019-06-15T02:44:46.662Z,17.41
2019-06-15T02:47:18.042Z,17.40
2019-06-15T02:49:48.631Z,17.40
2019-06-15T02:52:20.275Z,17.42
2019-06-15T02:54:50.893Z,17.40
2019-06-15T02:57:23.010Z,17.42
2019-06-15T02:59:53.611Z,17.39
2019-06-15T03:02:24.193Z,17.39
2019-06-15T03:04:54.839Z,17.39
2019-06-15T03:07:27.364Z,17.40
2019-06-15T03:09:57.781Z,17.40
2019-06-15T03:12:28.137Z,17.40
2019-06-15T03:14:58.721Z,17.42
2019-06-15T03:17:29.306Z,17.41
2019-06-15T03:20:00.011Z,17.34
2019-06-15T03:22:30.748Z,17.34
2019-06-15T03:25:03.353Z,17.35
2019-06-15T03:27:33.962Z,17.36
2019-06-15T03:30:04.803Z,17.36
2019-06-15T03:32:35.961Z,17.36
2019-06-15T03:35:06.600Z,17.40
2019-06-15T03:37:37.204Z,17.41
2019-06-15T03:40:10.932Z,17.41
2019-06-15T03:42:41.486Z,17.45
2019-06-15T03:45:14.075Z,17.45
2019-06-15T03:47:44.975Z,17.46
2019-06-15T03:50:16.493Z,17.46
2019-06-15T03:52:47.088Z,17.48
2019-06-15T03:55:17.877Z,17.51
2019-06-15T03:57:48.195Z,17.56
2019-06-15T04:01:02.394Z,17.61
2019-06-15T04:03:32.907Z,17.60
2019-06-15T04:06:03.801Z,17.59
2019-06-15T04:08:35.634Z,17.59
2019-06-15T04:11:06.222Z,17.60
2019-06-15T04:13:37.820Z,17.58
2019-06-15T04:16:08.395Z,17.51
2019-06-15T04:18:40.397Z,17.39
2019-06-15T04:21:11.374Z,17.39
2019-06-15T04:23:41.960Z,17.34
2019-06-15T04:26:12.666Z,17.31
2019-06-15T04:28:45.357Z,17.23
2019-06-15T04:31:15.935Z,17.21
2019-06-15T04:33:48.503Z,17.21
2019-06-15T04:36:19.073Z,17.20
2019-06-15T04:38:49.687Z,17.19
2019-06-15T04:41:20.301Z,17.18
2019-06-15T04:43:50.902Z,17.17
2019-06-15T04:46:21.197Z,17.19
2019-06-15T04:48:52.107Z,17.20
2019-06-15T04:51:22.504Z,17.20
2019-06-15T04:53:53.073Z,17.18
2019-06-15T04:56:27.523Z,17.14
2019-06-15T04:58:58.182Z,17.02
2019-06-15T05:01:28.808Z,17.02
2019-06-15T05:03:59.116Z,17.02
2019-06-15T05:06:30.251Z,17.03
2019-06-15T05:09:01.390Z,17.04
2019-06-15T05:11:32.663Z,17.03
2019-06-15T05:14:03.911Z,17.03
2019-06-15T05:16:35.787Z,17.05
2019-06-15T05:19:06.788Z,17.06
2019-06-15T05:21:38.723Z,17.06
2019-06-15T05:24:11.236Z,17.08
2019-06-15T05:26:41.746Z,17.12
2019-06-15T05:29:13.174Z,17.17
2019-06-15T05:31:43.570Z,17.13
2019-06-15T05:34:14.520Z,17.16
2019-06-15T05:36:45.129Z,17.23
2019-06-15T05:39:15.613Z,17.24
2019-06-15T05:41:46.871Z,17.30
2019-06-15T05:44:23.486Z,17.31
2019-06-15T05:46:54.920Z,17.25
2019-06-15T05:49:25.529Z,17.17
2019-06-15T05:51:55.871Z,17.10
2019-06-15T05:54:26.511Z,17.03
2019-06-15T05:56:57.167Z,16.98
2019-06-15T05:59:28.009Z,16.95
2019-06-15T06:01:58.552Z,16.92
2019-06-15T06:04:29.349Z,16.89
2019-06-15T06:07:00.866Z,16.89
2019-06-15T06:09:31.503Z,16.91
2019-06-15T06:12:02.244Z,16.96
2019-06-15T06:14:32.825Z,17.03
2019-06-15T06:17:04.595Z,17.12
2019-06-15T06:19:35.852Z,17.22
2019-06-15T06:22:09.029Z,17.36
2019-06-15T06:24:39.373Z,17.48
2019-06-15T06:27:10.626Z,17.53
2019-06-15T06:29:43.837Z,17.59
2019-06-15T06:32:14.908Z,17.60
2019-06-15T06:34:45.762Z,17.54
2019-06-15T06:37:16.464Z,17.57
2019-06-15T06:39:47.069Z,17.59
2019-06-15T06:42:17.737Z,17.65
2019-06-15T06:44:48.369Z,17.60
2019-06-15T06:47:19.475Z,17.53
2019-06-15T06:49:50.382Z,17.51
2019-06-15T06:52:21.002Z,17.49
2019-06-15T06:54:51.526Z,17.55
2019-06-15T06:57:22.479Z,17.67
2019-06-15T06:59:53.082Z,17.86
2019-06-15T07:02:25.044Z,17.97
2019-06-15T07:04:55.749Z,17.95
2019-06-15T07:07:26.464Z,18.14
2019-06-15T07:09:57.133Z,18.43
2019-06-15T07:12:27.808Z,18.75
2019-06-15T07:14:58.610Z,19.22
2019-06-15T07:17:29.224Z,19.56
2019-06-15T07:19:59.863Z,19.82
2019-06-15T07:22:30.486Z,19.95
2019-06-15T07:25:01.218Z,20.13
2019-06-15T07:27:31.919Z,20.39
2019-06-15T07:30:02.687Z,20.71
2019-06-15T07:32:33.628Z,20.71
2019-06-15T07:35:04.831Z,21.19
2019-06-15T07:37:35.461Z,22.44
2019-06-15T07:40:08.237Z,24.05
2019-06-15T07:42:39.537Z,26.23
2019-06-15T07:45:11.099Z,27.80
2019-06-15T07:48:06.616Z,28.59
2019-06-15T07:50:37.008Z,30.91
2019-06-15T07:53:07.744Z,34.16
2019-06-15T07:55:39.171Z,34.18
2019-06-15T07:58:23.613Z,31.50
2019-06-15T08:00:42.516Z,28.51
2019-06-15T08:03:13.194Z,26.78
2019-06-15T08:05:43.625Z,26.31
2019-06-15T08:08:14.387Z,26.15
2019-06-15T08:10:45.061Z,26.40
2019-06-15T08:13:16.912Z,26.41
2019-06-15T08:15:47.457Z,25.62
2019-06-15T08:18:18.138Z,24.83
2019-06-15T08:20:49.138Z,24.25
2019-06-15T08:23:19.759Z,23.80
2019-06-15T08:25:51.658Z,23.33
2019-06-15T08:28:22.299Z,22.84
2019-06-15T08:30:52.918Z,22.39
2019-06-15T08:33:23.625Z,21.89
2019-06-15T08:35:54.739Z,21.46
2019-06-15T08:38:25.378Z,21.17
2019-06-15T08:40:55.988Z,20.98
2019-06-15T08:43:26.659Z,20.87
2019-06-15T08:46:03.213Z,20.73
2019-06-15T08:48:34.142Z,20.52
2019-06-15T08:51:04.835Z,20.33
2019-06-15T08:53:35.411Z,20.14
2019-06-15T08:56:06.062Z,19.89
2019-06-15T08:58:36.684Z,19.25
2019-06-15T09:01:08.399Z,18.78
2019-06-15T09:03:39.809Z,18.45
2019-06-15T09:06:12.097Z,18.18
2019-06-15T09:08:44.234Z,18.14
2019-06-15T09:11:14.938Z,18.08
2019-06-15T09:13:45.631Z,18.07
2019-06-15T09:16:16.330Z,18.03
2019-06-15T09:18:46.983Z,17.99
2019-06-15T09:21:17.564Z,17.98
2019-06-15T09:23:48.087Z,18.05
2019-06-15T09:26:18.700Z,18.16
2019-06-15T09:29:10.637Z,18.16
2019-06-15T09:31:31.765Z,18.58
2019-06-15T09:34:15.528Z,18.58
2019-06-15T09:36:34.827Z,18.75
2019-06-15T09:39:07.427Z,19.18
2019-06-15T09:41:38.401Z,19.18
2019-06-15T09:44:09.041Z,19.43
2019-06-15T09:46:39.666Z,20.22
2019-06-15T09:49:10.309Z,21.32
2019-06-15T09:51:41.093Z,22.93
2019-06-15T09:54:11.687Z,22.68
2019-06-15T09:56:42.338Z,21.84
2019-06-15T09:59:25.268Z,22.83
2019-06-15T10:01:46.258Z,26.51
2019-06-15T10:04:16.597Z,26.51
2019-06-15T10:06:47.609Z,27.90
2019-06-15T10:09:18.336Z,27.83
2019-06-15T10:11:49.773Z,28.15
2019-06-15T10:14:21.465Z,28.61
2019-06-15T10:16:52.129Z,29.49
2019-06-15T10:19:25.953Z,31.73
2019-06-15T10:21:56.999Z,32.01
2019-06-15T10:24:30.655Z,32.58
2019-06-15T10:27:02.070Z,33.31
2019-06-15T10:29:41.532Z,33.14
2019-06-15T10:32:05.381Z,33.42
2019-06-15T10:34:37.385Z,34.92
2019-06-15T10:37:10.424Z,34.45
2019-06-15T10:39:41.101Z,35.28
2019-06-15T10:42:11.831Z,34.26
2019-06-15T10:44:54.470Z,35.13
2019-06-15T10:47:26.024Z,36.10
2019-06-15T10:49:57.922Z,35.18
2019-06-15T10:52:28.331Z,34.80
2019-06-15T10:54:58.963Z,34.92
2019-06-15T10:57:30.097Z,35.08
2019-06-15T11:00:00.768Z,34.41
2019-06-15T11:02:31.737Z,33.15
2019-06-15T11:05:02.137Z,33.15
2019-06-15T11:07:34.681Z,32.39
2019-06-15T11:10:06.752Z,34.63
2019-06-15T11:12:46.317Z,36.38
2019-06-15T11:15:10.704Z,36.04
2019-06-15T11:17:41.589Z,35.04
2019-06-15T11:20:15.025Z,35.04
2019-06-15T11:22:45.640Z,35.15
2019-06-15T11:25:16.000Z,34.13
2019-06-15T11:27:46.721Z,33.06
2019-06-15T11:30:17.088Z,30.63
2019-06-15T11:32:47.868Z,28.96
2019-06-15T11:35:19.875Z,29.28
2019-06-15T11:37:50.538Z,31.60
2019-06-15T11:40:21.221Z,30.30
2019-06-15T11:42:51.763Z,28.01
2019-06-15T11:45:22.373Z,26.34
2019-06-15T11:47:52.953Z,26.00
2019-06-15T11:50:23.633Z,26.71
2019-06-15T11:52:57.110Z,27.23
2019-06-15T11:55:38.991Z,26.66
2019-06-15T11:58:00.060Z,25.62
2019-06-15T12:00:33.672Z,25.62
2019-06-15T12:03:04.100Z,25.57
2019-06-15T12:05:35.759Z,25.53
2019-06-15T12:08:07.600Z,25.53
2019-06-15T12:10:38.256Z,27.11
2019-06-15T12:13:08.874Z,27.64
2019-06-15T12:15:41.116Z,27.73
2019-06-15T12:18:11.647Z,27.05
2019-06-15T12:20:42.381Z,26.81
2019-06-15T12:23:13.180Z,28.17
2019-06-15T12:25:43.813Z,28.79
2019-06-15T12:28:14.260Z,27.69
2019-06-15T12:30:47.794Z,27.83
2019-06-15T12:33:19.244Z,27.73
2019-06-15T12:35:49.891Z,27.49
2019-06-15T12:38:21.391Z,27.06
2019-06-15T12:40:51.988Z,26.81
2019-06-15T12:43:23.802Z,26.40
2019-06-15T12:45:57.686Z,25.99
2019-06-15T12:48:26.844Z,25.99
2019-06-15T12:50:57.571Z,25.87
2019-06-15T12:53:28.926Z,26.13
2019-06-15T12:55:59.577Z,26.51
2019-06-15T12:58:30.217Z,25.90
2019-06-15T13:01:03.573Z,26.57
2019-06-15T13:03:34.267Z,27.22
2019-06-15T13:06:04.752Z,27.15
2019-06-15T13:08:35.692Z,27.07
2019-06-15T13:11:06.219Z,27.07
2019-06-15T13:13:36.809Z,27.05
2019-06-15T13:16:07.131Z,27.44
2019-06-15T13:18:37.749Z,27.04
2019-06-15T13:21:08.112Z,27.27
2019-06-15T13:23:39.014Z,27.30
2019-06-15T13:26:09.726Z,27.57
2019-06-15T13:28:40.363Z,27.04
2019-06-15T13:31:18.024Z,26.59
2019-06-15T13:33:44.237Z,26.32
2019-06-15T13:36:14.929Z,25.94
2019-06-15T13:38:45.599Z,25.39
2019-06-15T13:41:17.820Z,25.38
2019-06-15T13:43:48.637Z,26.22
2019-06-15T13:46:20.255Z,26.30
2019-06-15T13:48:50.862Z,25.82
2019-06-15T13:51:21.174Z,25.72
2019-06-15T13:53:51.860Z,25.88
2019-06-15T13:56:22.300Z,25.44
2019-06-15T13:58:52.873Z,25.60
2019-06-15T14:01:33.784Z,25.92
2019-06-15T14:03:55.584Z,25.35
2019-06-15T14:06:26.251Z,25.43
2019-06-15T14:08:56.909Z,25.36
2019-06-15T14:11:27.613Z,25.03
2019-06-15T14:13:58.014Z,24.86
2019-06-15T14:16:28.628Z,25.30
2019-06-15T14:18:59.233Z,25.82
2019-06-15T14:21:29.865Z,25.86
2019-06-15T14:24:00.531Z,25.79
2019-06-15T14:26:33.331Z,26.11
2019-06-15T14:29:04.951Z,26.18
2019-06-15T14:31:49.298Z,26.72
2019-06-15T14:34:09.229Z,26.90
2019-06-15T14:36:39.868Z,26.66
2019-06-15T14:39:10.389Z,26.61
2019-06-15T14:41:41.005Z,26.74
2019-06-15T14:44:12.740Z,26.90
2019-06-15T14:46:43.400Z,26.75
2019-06-15T14:49:13.779Z,26.23
2019-06-15T14:51:44.486Z,26.15
2019-06-15T14:54:16.204Z,25.97
2019-06-15T14:56:46.985Z,25.79
2019-06-15T14:59:19.715Z,25.66
2019-06-15T15:01:57.273Z,25.42
2019-06-15T15:04:23.314Z,24.98
2019-06-15T15:06:56.490Z,24.39
2019-06-15T15:09:26.686Z,24.49
2019-06-15T15:11:57.545Z,24.78
2019-06-15T15:14:28.994Z,25.06
2019-06-15T15:16:59.608Z,25.57
2019-06-15T15:19:30.647Z,25.85
2019-06-15T15:22:01.256Z,25.74
2019-06-15T15:24:32.164Z,25.74
2019-06-15T15:27:02.978Z,25.71
2019-06-15T15:29:33.841Z,25.71
2019-06-15T15:32:04.441Z,25.73
2019-06-15T15:34:35.387Z,25.99
2019-06-15T15:37:06.038Z,25.77
2019-06-15T15:39:36.971Z,25.69
2019-06-15T15:42:07.416Z,25.63
2019-06-15T15:44:39.219Z,25.49
2019-06-15T15:47:09.855Z,25.24
2019-06-15T15:49:40.852Z,25.29
2019-06-15T15:52:11.344Z,25.69
2019-06-15T15:54:42.161Z,25.83
2019-06-15T15:57:17.229Z,25.81
2019-06-15T15:59:47.452Z,25.70
2019-06-15T16:02:19.123Z,25.46
2019-06-15T16:04:49.835Z,25.44
2019-06-15T16:07:20.419Z,25.10
2019-06-15T16:09:51.300Z,25.10
2019-06-15T16:12:23.507Z,25.13
2019-06-15T16:14:56.330Z,24.94
2019-06-15T16:17:27.632Z,24.57
2019-06-15T16:19:58.408Z,24.37
2019-06-15T16:22:29.133Z,24.42
2019-06-15T16:25:01.025Z,24.59
2019-06-15T16:27:31.726Z,24.75
2019-06-15T16:30:02.182Z,24.81
2019-06-15T16:32:33.091Z,24.65
2019-06-15T16:35:04.064Z,24.50
2019-06-15T16:37:34.700Z,24.16
2019-06-15T16:40:05.906Z,23.84
2019-06-15T16:42:36.748Z,23.74
2019-06-15T16:45:09.006Z,23.87
2019-06-15T16:47:39.911Z,24.06
2019-06-15T16:50:12.000Z,24.18
2019-06-15T16:52:42.680Z,24.19
2019-06-15T16:55:13.101Z,24.22
2019-06-15T16:57:46.467Z,24.15
2019-06-15T17:00:20.531Z,24.17
2019-06-15T17:02:51.415Z,24.11
2019-06-15T17:05:22.035Z,23.95
2019-06-15T17:07:52.717Z,23.81
2019-06-15T17:10:31.241Z,23.81
2019-06-15T17:13:02.105Z,23.84
2019-06-15T17:15:32.714Z,23.75
2019-06-15T17:18:03.411Z,23.71
2019-06-15T17:20:42.561Z,23.62
2019-06-15T17:23:13.191Z,23.55
2019-06-15T17:25:43.586Z,23.68
2019-06-15T17:28:14.554Z,23.64
2019-06-15T17:33:38.426Z,23.32
2019-06-15T17:36:09.445Z,23.10
2019-06-15T17:38:40.324Z,23.05
2019-06-15T17:41:10.964Z,23.15
2019-06-15T17:43:42.885Z,23.27
2019-06-15T17:46:13.557Z,23.43
2019-06-15T17:48:46.697Z,23.60
2019-06-15T17:51:17.537Z,23.69
2019-06-15T17:53:49.078Z,23.61
2019-06-15T17:56:19.689Z,23.69
2019-06-15T17:58:50.446Z,23.82
2019-06-15T18:01:22.226Z,23.91
2019-06-15T18:03:57.231Z,23.87
2019-06-15T18:06:26.750Z,23.96
2019-06-15T18:08:59.040Z,23.93
2019-06-15T18:11:29.650Z,23.95
2019-06-15T18:14:00.138Z,23.79
2019-06-15T18:16:30.760Z,23.67
2019-06-15T18:19:01.395Z,23.52
2019-06-15T18:21:31.996Z,23.13
2019-06-15T18:24:02.838Z,23.02
2019-06-15T18:26:33.221Z,22.92
2019-06-15T18:29:04.067Z,22.81
2019-06-15T18:31:36.449Z,22.72
2019-06-15T18:34:12.787Z,22.65
2019-06-15T18:36:40.337Z,22.65
2019-06-15T18:39:11.010Z,22.63
2019-06-15T18:41:42.716Z,22.68
2019-06-15T18:44:16.040Z,22.55
2019-06-15T18:46:46.923Z,22.40
2019-06-15T18:49:17.882Z,22.14
2019-06-15T18:51:48.531Z,21.94
2019-06-15T18:54:19.157Z,21.75
2019-06-15T18:56:49.707Z,21.62
2019-06-15T18:59:20.465Z,21.56
2019-06-15T19:01:51.184Z,21.53
2019-06-15T19:04:27.048Z,21.47
2019-06-15T19:06:56.218Z,21.43
2019-06-15T19:09:27.043Z,21.37
2019-06-15T19:11:58.888Z,21.33
2019-06-15T19:14:30.494Z,21.29
2019-06-15T19:19:38.196Z,21.27
2019-06-15T19:22:08.847Z,21.30
2019-06-15T19:24:39.448Z,21.17
2019-06-15T19:27:10.348Z,20.96
2019-06-15T19:29:41.173Z,20.75
2019-06-15T19:32:12.824Z,20.54
2019-06-15T19:34:47.661Z,20.35
2019-06-15T19:37:16.073Z,20.23
2019-06-15T19:39:46.820Z,20.12
2019-06-15T19:42:18.361Z,19.97
2019-06-15T19:44:49.011Z,19.83
2019-06-15T19:47:19.963Z,19.67
2019-06-15T19:49:50.620Z,19.55
2019-06-15T19:52:21.531Z,19.46
2019-06-15T19:54:52.187Z,19.38
2019-06-15T19:57:22.847Z,19.27
2019-06-15T19:59:56.070Z,19.15
2019-06-15T20:02:27.137Z,19.03
2019-06-15T20:05:03.413Z,18.94
2019-06-15T20:07:31.265Z,18.86
2019-06-15T20:10:01.656Z,18.81
2019-06-15T20:12:33.363Z,18.75
2019-06-15T20:15:06.369Z,18.72
2019-06-15T20:17:37.095Z,18.66
2019-06-15T20:20:07.874Z,18.49
2019-06-15T20:22:38.307Z,18.49
2019-06-15T20:25:08.883Z,18.43
2019-06-15T20:27:39.571Z,18.34
2019-06-15T20:30:11.677Z,18.29
2019-06-15T20:32:42.577Z,18.34
2019-06-15T20:35:18.680Z,18.53
2019-06-15T20:37:46.505Z,18.82
2019-06-15T20:40:21.553Z,18.74
2019-06-15T20:42:52.411Z,18.55
2019-06-15T20:45:26.702Z,18.55
2019-06-15T20:48:01.249Z,18.42
2019-06-15T20:50:32.430Z,18.42
2019-06-15T20:53:05.846Z,18.35
2019-06-15T20:55:37.443Z,18.27
2019-06-15T20:58:08.297Z,18.18
2019-06-15T21:00:39.249Z,18.11
2019-06-15T21:03:10.096Z,18.01
2019-06-15T21:05:42.106Z,17.99
2019-06-15T21:08:13.219Z,18.03
2019-06-15T21:10:46.693Z,18.15
2019-06-15T21:13:29.520Z,18.20
2019-06-15T21:16:01.879Z,18.22
2019-06-15T21:18:33.995Z,18.30
2019-06-15T21:21:06.910Z,18.30
2019-06-15T21:23:37.570Z,18.22
2019-06-15T21:26:08.240Z,18.14
2019-06-15T21:28:39.067Z,17.97
2019-06-15T21:31:09.871Z,17.97
2019-06-15T21:33:46.610Z,17.85
2019-06-15T21:36:16.582Z,17.75
2019-06-15T21:38:47.419Z,17.68
2019-06-15T21:41:17.869Z,17.62
2019-06-15T21:43:48.807Z,17.58
2019-06-15T21:46:19.445Z,17.52
2019-06-15T21:48:51.727Z,17.42
2019-06-15T21:51:22.429Z,17.32
2019-06-15T21:53:53.022Z,17.22
2019-06-15T21:56:28.989Z,17.18
2019-06-15T21:58:58.202Z,17.14
2019-06-15T22:01:37.216Z,17.10
2019-06-15T22:04:07.354Z,17.06
2019-06-15T22:06:37.780Z,17.00
2019-06-15T22:09:20.255Z,16.95
2019-06-15T22:11:47.369Z,16.89
2019-06-15T22:14:18.245Z,16.76
2019-06-15T22:16:48.783Z,16.70
2019-06-15T22:19:21.824Z,16.56
2019-06-15T22:21:52.830Z,16.56
2019-06-15T22:24:23.190Z,16.52
2019-06-15T22:26:55.993Z,16.54
2019-06-15T22:29:27.392Z,16.61
2019-06-15T22:31:58.048Z,16.59
2019-06-15T22:34:28.851Z,16.59
2019-06-15T22:36:59.529Z,16.57
2019-06-15T22:39:29.886Z,16.57
2019-06-15T22:42:01.633Z,16.62
2019-06-15T22:44:32.277Z,16.62
2019-06-15T22:47:06.921Z,16.59
2019-06-15T22:49:37.820Z,16.55
2019-06-15T22:52:09.400Z,16.55
2019-06-15T22:54:39.841Z,16.58
2019-06-15T22:57:12.042Z,16.62
2019-06-15T22:59:42.922Z,16.68
2019-06-15T23:02:16.625Z,16.75
2019-06-15T23:04:47.245Z,16.83
2019-06-15T23:07:20.491Z,16.87
2019-06-15T23:09:51.398Z,16.95
2019-06-15T23:12:23.005Z,16.98
2019-06-15T23:14:55.895Z,17.00
2019-06-15T23:17:26.839Z,17.03
2019-06-15T23:19:59.714Z,17.06
2019-06-15T23:22:31.855Z,17.07
2019-06-15T23:25:02.772Z,17.09
2019-06-15T23:27:35.687Z,17.11
2019-06-15T23:30:07.191Z,17.15
2019-06-15T23:32:39.422Z,17.16
2019-06-15T23:35:12.081Z,17.19
2019-06-15T23:37:42.726Z,17.24
2019-06-15T23:40:19.847Z,17.26
2019-06-15T23:42:51.174Z,17.28
2019-06-15T23:45:22.002Z,17.30
2019-06-15T23:47:53.967Z,17.30
2019-06-15T23:50:26.381Z,17.27
2019-06-15T23:52:57.642Z,17.19
2019-06-15T23:55:28.216Z,16.99
2019-06-15T23:57:59.183Z,16.99
